Creek Data

    Home     View Charts     View Raw Data     Messages

ID Distance Battery Voltage Battery Current Internal Temp Internal Humidity External Temp Solar Input rssi snr Time Stamp Record
65233 15.1 3.83 9 71 44 61 5.1 -78 5 02/03/2026 12:30 PM 48012
65232 15.2 3.83 0 70 44 61 5.1 -74 8 02/03/2026 12:15 PM 48011
65231 15.2 3.83 9 68 44 60 5.1 -75 7 02/03/2026 11:45 AM 48009
65230 15.2 3.83 9 66 43 59 5.1 -75 8 02/03/2026 11:30 AM 48008
65229 15.2 3.82 9 65 44 59 5.1 -75 8 02/03/2026 11:15 AM 48007
65228 15.2 3.82 0 62 44 58 5.1 -75 8 02/03/2026 11:00 AM 48006
65227 15.1 3.82 0 60 44 57 5.1 -74 8 02/03/2026 10:45 AM 48005
65226 15.1 3.91 9 58 45 55 5.1 -74 8 02/03/2026 10:30 AM 48004
65225 15.1 3.82 0 56 45 55 5.1 -75 8 02/03/2026 10:15 AM 48003
65224 15.1 3.82 0 55 45 55 5.1 -75 8 02/03/2026 10:00 AM 48002
65223 15.1 3.82 0 52 45 53 5.1 -75 8 02/03/2026 09:45 AM 48001
65222 15.0 3.82 0 48 46 49 5.1 -77 7 02/03/2026 09:15 AM 47999
65221 15.0 3.82 9 46 46 48 5.1 -80 8 02/03/2026 09:00 AM 47998
65220 14.9 4.00 51 43 46 44 4.5 -79 7 02/03/2026 08:30 AM 47996
65219 14.9 3.93 45 42 47 43 4.5 -80 8 02/03/2026 08:15 AM 47995
65218 14.9 3.86 35 41 48 42 4.5 -80 7 02/03/2026 08:00 AM 47994
65217 14.9 3.78 12 39 48 41 4.5 -80 8 02/03/2026 07:45 AM 47993
65216 14.9 3.81 0 38 49 40 4.5 -80 8 02/03/2026 07:30 AM 47992
65215 14.9 3.69 -9 38 49 39 4.5 -81 8 02/03/2026 07:15 AM 47991
65214 14.9 3.80 -5 37 50 40 1.2 -80 8 02/03/2026 07:00 AM 47990
65213 14.9 3.71 -5 37 49 37 0.1 -80 7 02/03/2026 06:45 AM 47989
65212 14.9 3.71 -5 37 49 38 0 -81 8 02/03/2026 06:30 AM 47988
65211 14.9 3.71 -5 37 49 38 0 -82 8 02/03/2026 06:15 AM 47987
65210 14.9 3.71 -5 38 49 39 0.1 -83 8 02/03/2026 06:00 AM 47986
65209 14.9 3.71 -5 38 49 40 0 -84 7 02/03/2026 05:45 AM 47985